Denton, MT (59430)

9:16 AM MST on February 07, 2016 (GMT -0700)
Owen Farm Company | | Change Station
CLOSE
Current Station
Personal Weather Station
Location: Geraldine, MT
Elevation: 3087 ft
Nearby Weather Stations

Elev 3087 ft 47.61 °N, 110.09 °W | Updated 5 seconds ago

Partly Cloudy
Partly Cloudy
31.5 °F
Feels Like 20 °F
N
16.6
Wind Variable Wind from NNE
Gusts 16.6 mph

Today
High -- | Low -- °F
--% Chance of Precip.
Yesterday
High -- | Low -- °F
Precip. -- in
Pressure 30.51 in
Visibility 10.0 miles
Clouds Clear
Windchill 20 °F
Dew Point 18 °F
Humidity 53%
Rainfall 0.00 in
Snow Depth Not available.
7:37 AM 5:30 PM
Waning Crescent, 1% visible
METAR KLWT 071554Z AUTO 34004KT 10SM CLR M02/M10 A3040 RMK AO2 SLP330 T10221100
Pressure 30.51 in
Visibility 10.0 miles
Clouds Clear
Windchill 20 °F
Dew Point 18 °F
Humidity 53%
Rainfall 0.00 in
Snow Depth Not available.
7:37 AM 5:30 PM
Waning Crescent, 1% visible
METAR KLWT 071554Z AUTO 34004KT 10SM CLR M02/M10 A3040 RMK AO2 SLP330 T10221100

10-Day Weather Forecast

Almanac

Astronomy

Feb. 07, 2016 Rise Set
Actual Time
Civil Twilight
Nautical Twilight
Astronomical Twilight
Moon
Length of Visible Light
Length of Day
Tomorrow will be .
, % of the Moon is Illuminated

Today's Extremes

State Highs State Lows

Community

WunderPhotos

Upload Photos

1,891,221 photos uploaded!

WunderBlog® & News

Nearby

Air Quality

  Air Quality AQ Index Pollutant
Not available.

Snow Depth

Station Depth Elevation

Earthquake Activity

City Distance Mag. Time & Date
Minimum magnitude displayed is 2.5.

Coastal Water Temperatures

Place Temperature

Stations

Nearby Weather Stations

Station Location Temp. Windchill Dew Point Humidity Wind Precip. Elev Updated Type
                   

Watches & Warnings

There are currently no watches in effect.